Livonia, New York
Current Conditions -  °F | °C
As of 2:54 AM on Wednesday 22 Oct 2014 (Local Time) from KDSV Reporting Station
Overcast Overcast  
Wind Chill: 41°   Ceiling: 1000
Heat Index: 46°   Visibility: 10mi
Dew Point: 45°   Wind: 10mph
Humidity: 96%   Direction: 310°NW
Pressure: 30.07"   Gusts: NA
Location:  42.82°N, 77.67°W
Report Text: KDSV 220654Z AUTO 31009KT 10SM OVC010 08/07 A3007 RMK AO2 CIG 006V015 SLP193 T00780072
Loading
Personal Weather Stations






























Interactive Weather Map
Tropical Storm Tracking
New forecast layout! Learn more

10-Day Weather Forecast

Advertisements
Track Severe Weather on mobile